createdAt,value
2023-05-11T00:00:38.206Z,0.00
2023-05-11T00:01:38.182Z,0.00
2023-05-11T00:02:38.288Z,0.00
2023-05-11T00:03:38.281Z,0.00
2023-05-11T00:04:38.392Z,0.00
2023-05-11T00:05:38.152Z,0.00
2023-05-11T00:06:38.142Z,0.00
2023-05-11T00:07:38.114Z,0.00
2023-05-11T00:08:38.109Z,0.00
2023-05-11T00:09:38.143Z,0.00
2023-05-11T00:10:38.088Z,0.00
2023-05-11T00:11:38.086Z,0.00
2023-05-11T00:12:38.067Z,0.00
2023-05-11T00:13:38.047Z,0.00
2023-05-11T00:14:38.061Z,0.00
2023-05-11T00:15:38.064Z,0.00
2023-05-11T00:16:38.023Z,0.00
2023-05-11T00:17:38.053Z,0.00
2023-05-11T00:18:38.023Z,0.00
2023-05-11T00:19:38.016Z,0.00
2023-05-11T00:20:37.980Z,0.00
2023-05-11T00:21:37.961Z,0.00
2023-05-11T00:22:37.956Z,0.00
2023-05-11T00:23:37.950Z,0.00
2023-05-11T00:24:37.976Z,0.00
2023-05-11T00:25:37.949Z,0.00
2023-05-11T00:26:37.921Z,0.00
2023-05-11T00:27:37.937Z,0.00
2023-05-11T00:28:37.897Z,0.00
2023-05-11T00:29:37.890Z,0.00
2023-05-11T00:30:37.868Z,0.00
2023-05-11T00:31:37.872Z,0.00
2023-05-11T00:32:37.923Z,0.00
2023-05-11T00:33:37.832Z,0.00
2023-05-11T00:34:37.862Z,0.00
2023-05-11T00:35:37.809Z,0.00
2023-05-11T00:36:37.798Z,0.00
2023-05-11T00:37:37.789Z,0.00
2023-05-11T00:38:37.812Z,0.00
2023-05-11T00:39:37.766Z,0.00
2023-05-11T00:40:37.760Z,0.00
2023-05-11T00:41:37.769Z,0.00
2023-05-11T00:42:37.755Z,0.00
2023-05-11T00:43:37.776Z,0.00
2023-05-11T00:44:37.715Z,0.00
2023-05-11T00:45:37.701Z,0.00
2023-05-11T00:46:37.775Z,0.00
2023-05-11T00:47:37.735Z,0.00
2023-05-11T00:48:37.704Z,0.00
2023-05-11T00:49:37.666Z,0.00
2023-05-11T00:50:37.651Z,0.00
2023-05-11T00:51:37.642Z,0.00
2023-05-11T00:52:37.626Z,0.00
2023-05-11T00:53:37.620Z,0.00
2023-05-11T00:54:37.643Z,0.00
2023-05-11T00:55:37.598Z,0.00
2023-05-11T00:56:37.587Z,0.00
2023-05-11T00:57:37.589Z,0.00
2023-05-11T00:58:37.565Z,0.00
2023-05-11T00:59:37.575Z,0.00
2023-05-11T01:00:37.607Z,0.00
2023-05-11T01:01:37.532Z,0.00
2023-05-11T01:02:37.629Z,0.00
2023-05-11T01:03:37.506Z,0.00
2023-05-11T01:04:37.520Z,0.00
2023-05-11T01:05:37.488Z,0.00
2023-05-11T01:06:37.484Z,0.00
2023-05-11T01:07:37.472Z,0.00
2023-05-11T01:08:37.457Z,0.00
2023-05-11T01:09:37.467Z,0.00
2023-05-11T01:10:37.438Z,0.00
2023-05-11T01:11:37.447Z,0.00
2023-05-11T01:12:37.427Z,0.00
2023-05-11T01:13:37.464Z,0.00
2023-05-11T01:14:37.420Z,0.00
2023-05-11T01:15:37.399Z,0.00
2023-05-11T01:16:37.424Z,0.00
2023-05-11T01:17:37.385Z,0.00
2023-05-11T01:18:37.456Z,0.00
2023-05-11T01:19:37.345Z,0.00
2023-05-11T01:20:37.337Z,0.00
2023-05-11T01:21:37.335Z,0.00
2023-05-11T01:22:37.313Z,0.00
2023-05-11T01:23:37.305Z,0.00
2023-05-11T01:24:37.292Z,0.00
2023-05-11T01:25:37.300Z,0.00
2023-05-11T01:26:37.295Z,0.00
2023-05-11T01:27:37.257Z,0.00
2023-05-11T01:28:37.247Z,0.00
2023-05-11T01:29:37.260Z,0.00
2023-05-11T01:30:37.244Z,0.00
2023-05-11T01:31:37.261Z,0.00
2023-05-11T01:32:38.395Z,0.00
2023-05-11T01:33:37.194Z,0.00
2023-05-11T01:34:37.179Z,0.00
2023-05-11T01:35:37.188Z,0.00
2023-05-11T01:36:37.187Z,0.00
2023-05-11T01:37:37.143Z,0.00
2023-05-11T01:38:37.135Z,0.00
2023-05-11T01:39:37.131Z,0.00
2023-05-11T01:40:37.126Z,0.00
2023-05-11T01:41:37.136Z,0.00
2023-05-11T01:42:37.096Z,0.00
2023-05-11T01:43:37.081Z,0.00
2023-05-11T01:44:37.068Z,0.00
2023-05-11T01:45:37.076Z,0.00
2023-05-11T01:46:37.215Z,0.00
2023-05-11T01:47:37.067Z,0.00
2023-05-11T01:48:37.027Z,0.00
2023-05-11T01:49:37.010Z,0.00
2023-05-11T01:50:37.016Z,0.00
2023-05-11T01:51:37.704Z,0.00
2023-05-11T01:52:36.984Z,0.00
2023-05-11T01:53:36.965Z,0.00
2023-05-11T01:54:36.988Z,0.00
2023-05-11T01:55:36.970Z,0.00
2023-05-11T01:56:36.936Z,0.00
2023-05-11T01:57:36.950Z,0.00
2023-05-11T01:58:36.918Z,0.00
2023-05-11T01:59:36.904Z,0.00
2023-05-11T02:00:36.924Z,0.00
2023-05-11T02:01:36.915Z,0.00
2023-05-11T02:02:37.033Z,0.00
2023-05-11T02:03:37.082Z,0.00
2023-05-11T02:04:36.845Z,0.00
2023-05-11T02:05:36.839Z,0.00
2023-05-11T02:06:36.827Z,0.00
2023-05-11T02:07:36.833Z,0.00
2023-05-11T02:08:36.797Z,0.00
2023-05-11T02:09:36.791Z,0.00
2023-05-11T02:10:36.783Z,0.00
2023-05-11T02:11:36.769Z,0.00
2023-05-11T02:12:36.778Z,0.00
2023-05-11T02:13:36.752Z,0.00
2023-05-11T02:14:36.753Z,0.00
2023-05-11T02:15:36.808Z,0.00
2023-05-11T02:16:36.744Z,0.00
2023-05-11T02:17:36.798Z,0.00
2023-05-11T02:18:36.764Z,0.00
2023-05-11T02:19:36.728Z,0.00
2023-05-11T02:20:36.669Z,0.00
2023-05-11T02:21:36.688Z,0.00
2023-05-11T02:22:36.649Z,0.00
2023-05-11T02:23:36.644Z,0.00
2023-05-11T02:24:36.658Z,0.00
2023-05-11T02:25:36.625Z,0.00
2023-05-11T02:26:36.610Z,0.00
2023-05-11T02:27:36.602Z,0.00
2023-05-11T02:28:36.602Z,0.00
2023-05-11T02:29:36.602Z,0.00
2023-05-11T02:30:36.567Z,0.00
2023-05-11T02:31:36.646Z,0.00
2023-05-11T02:32:36.595Z,0.00
2023-05-11T02:33:36.556Z,0.00
2023-05-11T02:34:36.531Z,0.00
2023-05-11T02:35:36.512Z,0.00
2023-05-11T02:36:36.504Z,0.00
2023-05-11T02:37:36.511Z,0.00
2023-05-11T02:38:36.500Z,0.00
2023-05-11T02:39:36.519Z,0.00
2023-05-11T02:40:36.487Z,0.00
2023-05-11T02:41:36.477Z,0.00
2023-05-11T02:42:36.447Z,0.00
2023-05-11T02:43:36.428Z,0.00
2023-05-11T02:44:36.411Z,0.00
2023-05-11T02:45:36.403Z,0.00
2023-05-11T02:46:36.460Z,0.00
2023-05-11T02:47:36.473Z,0.00
2023-05-11T02:48:36.376Z,0.00
2023-05-11T02:49:36.383Z,0.00
2023-05-11T02:50:36.347Z,0.00
2023-05-11T02:51:36.374Z,0.00
2023-05-11T02:52:36.324Z,0.00
2023-05-11T02:53:36.320Z,0.00
2023-05-11T02:54:36.302Z,0.00
2023-05-11T02:55:36.302Z,0.00
2023-05-11T02:56:36.304Z,0.00
2023-05-11T02:57:36.288Z,0.00
2023-05-11T02:58:36.280Z,0.00
2023-05-11T02:59:36.254Z,0.00
2023-05-11T03:00:36.269Z,0.00
2023-05-11T03:01:36.361Z,0.00
2023-05-11T03:02:36.239Z,0.00
2023-05-11T03:03:36.423Z,0.00
2023-05-11T03:04:36.193Z,0.00
2023-05-11T03:05:36.216Z,0.00
2023-05-11T03:06:36.202Z,0.00
2023-05-11T03:07:36.173Z,0.00
2023-05-11T03:08:36.163Z,0.00
2023-05-11T03:09:36.149Z,0.00
2023-05-11T03:10:36.128Z,0.00
2023-05-11T03:11:36.151Z,0.00
2023-05-11T03:12:36.108Z,0.00
2023-05-11T03:13:36.106Z,0.00
2023-05-11T03:14:36.108Z,0.00
2023-05-11T03:15:36.092Z,0.00
2023-05-11T03:16:36.134Z,0.00
2023-05-11T03:17:36.091Z,0.00
2023-05-11T03:18:36.127Z,0.00
2023-05-11T03:19:36.038Z,0.00
2023-05-11T03:20:36.053Z,0.00
2023-05-11T03:21:36.036Z,0.00
2023-05-11T03:22:36.001Z,0.00
2023-05-11T03:23:36.018Z,0.00
2023-05-11T03:24:35.988Z,0.00
2023-05-11T03:25:35.997Z,0.00
2023-05-11T03:26:35.977Z,0.00
2023-05-11T03:27:35.955Z,0.00
2023-05-11T03:28:35.973Z,0.00
2023-05-11T03:29:35.936Z,0.00
2023-05-11T03:30:35.923Z,0.00
2023-05-11T03:31:35.970Z,0.00
2023-05-11T03:32:35.945Z,0.00
2023-05-11T03:33:35.896Z,0.00
2023-05-11T03:34:35.895Z,0.00
2023-05-11T03:35:35.868Z,0.00
2023-05-11T03:36:35.855Z,0.00
2023-05-11T03:37:35.883Z,0.00
2023-05-11T03:38:35.829Z,0.00
2023-05-11T03:39:35.848Z,0.00
2023-05-11T03:40:35.846Z,0.00
2023-05-11T03:41:35.812Z,0.00
2023-05-11T03:42:35.795Z,0.00
2023-05-11T03:43:35.776Z,0.00
2023-05-11T03:44:35.767Z,0.00
2023-05-11T03:45:35.759Z,0.00
2023-05-11T03:46:35.863Z,0.00
2023-05-11T03:47:35.760Z,0.00
2023-05-11T03:48:35.720Z,0.00
2023-05-11T03:49:35.725Z,0.00
2023-05-11T03:50:35.705Z,0.00
2023-05-11T03:51:35.716Z,0.00
2023-05-11T03:52:35.678Z,0.00
2023-05-11T03:53:35.699Z,0.00
2023-05-11T03:54:35.660Z,0.00
2023-05-11T03:55:35.674Z,0.00
2023-05-11T03:56:35.630Z,0.00
2023-05-11T03:57:35.631Z,0.00
2023-05-11T03:58:35.618Z,0.00
2023-05-11T03:59:35.608Z,0.00
2023-05-11T04:00:35.617Z,5.62
2023-05-11T04:01:35.600Z,5.62
2023-05-11T04:02:35.635Z,5.62
2023-05-11T04:03:35.721Z,5.62
2023-05-11T04:04:35.592Z,5.62
2023-05-11T04:05:35.576Z,5.62
2023-05-11T04:06:35.533Z,5.62
2023-05-11T04:07:35.520Z,5.62
2023-05-11T04:08:35.501Z,5.62
2023-05-11T04:09:35.528Z,5.62
2023-05-11T04:10:35.525Z,5.62
2023-05-11T04:11:35.476Z,5.62
2023-05-11T04:12:35.489Z,5.62
2023-05-11T04:13:35.454Z,5.62
2023-05-11T04:14:35.466Z,5.62
2023-05-11T04:15:35.452Z,5.62
2023-05-11T04:16:35.505Z,5.62
2023-05-11T04:17:35.463Z,5.62
2023-05-11T04:18:35.474Z,5.62
2023-05-11T04:19:35.410Z,5.62
2023-05-11T04:20:35.371Z,5.62
2023-05-11T04:21:35.373Z,5.62
2023-05-11T04:22:35.356Z,5.62
2023-05-11T04:23:35.342Z,5.62
2023-05-11T04:24:35.353Z,5.62
2023-05-11T04:25:35.344Z,5.62
2023-05-11T04:26:35.305Z,5.62
2023-05-11T04:27:35.301Z,5.62
2023-05-11T04:28:35.282Z,5.62
2023-05-11T04:29:35.304Z,5.62
2023-05-11T04:30:35.285Z,5.62
2023-05-11T04:31:35.330Z,5.62
2023-05-11T04:32:35.279Z,5.62
2023-05-11T04:33:35.240Z,5.62
2023-05-11T04:34:35.224Z,5.62
2023-05-11T04:35:35.232Z,5.62
2023-05-11T04:36:35.224Z,5.62
2023-05-11T04:37:35.196Z,5.62
2023-05-11T04:38:35.185Z,5.62
2023-05-11T04:39:35.168Z,11.25
2023-05-11T04:40:35.163Z,11.25
2023-05-11T04:41:35.197Z,11.25
2023-05-11T04:42:35.137Z,11.25
2023-05-11T04:43:35.131Z,11.25
2023-05-11T04:44:35.112Z,11.25
2023-05-11T04:45:35.106Z,11.25
2023-05-11T04:46:35.122Z,11.25
2023-05-11T04:47:35.150Z,11.25
2023-05-11T04:48:35.064Z,11.25
2023-05-11T04:49:35.066Z,11.25
2023-05-11T04:50:35.060Z,11.25
2023-05-11T04:51:35.047Z,11.25
2023-05-11T04:52:35.054Z,11.25
2023-05-11T04:53:35.018Z,11.25
2023-05-11T04:54:35.004Z,11.25
2023-05-11T04:55:35.003Z,11.25
2023-05-11T04:56:34.984Z,11.25
2023-05-11T04:57:35.017Z,11.25
2023-05-11T04:58:34.974Z,11.25
2023-05-11T04:59:35.002Z,11.25
2023-05-11T05:00:34.935Z,11.25
2023-05-11T05:01:35.019Z,11.25
2023-05-11T05:02:34.966Z,11.25
2023-05-11T05:03:34.948Z,11.25
2023-05-11T05:04:36.387Z,11.25
2023-05-11T05:05:34.891Z,11.25
2023-05-11T05:06:34.882Z,11.25
2023-05-11T05:07:34.876Z,11.25
2023-05-11T05:08:34.883Z,11.25
2023-05-11T05:09:34.852Z,11.25
2023-05-11T05:10:34.836Z,11.25
2023-05-11T05:11:34.831Z,11.25
2023-05-11T05:12:34.815Z,11.25
2023-05-11T05:13:34.859Z,11.25
2023-05-11T05:14:34.794Z,11.25
2023-05-11T05:15:34.784Z,11.25
2023-05-11T05:16:34.826Z,11.25
2023-05-11T05:17:34.824Z,11.25
2023-05-11T05:18:34.874Z,11.25
2023-05-11T05:19:34.749Z,16.88
2023-05-11T05:20:34.745Z,16.88
2023-05-11T05:21:34.738Z,16.88
2023-05-11T05:22:34.721Z,16.88
2023-05-11T05:23:34.737Z,16.88
2023-05-11T05:24:34.681Z,16.88
2023-05-11T05:25:34.679Z,16.88
2023-05-11T05:26:34.664Z,16.88
2023-05-11T05:27:35.201Z,16.88
2023-05-11T05:28:34.672Z,16.88
2023-05-11T05:29:34.658Z,16.88
2023-05-11T05:30:34.640Z,16.88
2023-05-11T05:31:34.656Z,16.88
2023-05-11T05:32:34.629Z,16.88
2023-05-11T05:33:34.636Z,16.88
2023-05-11T05:34:34.579Z,16.88
2023-05-11T05:35:34.571Z,16.88
2023-05-11T05:36:34.557Z,16.88
2023-05-11T05:37:34.552Z,16.88
2023-05-11T05:38:34.558Z,16.88
2023-05-11T05:39:34.524Z,16.88
2023-05-11T05:40:34.514Z,16.88
2023-05-11T05:41:34.520Z,16.88
2023-05-11T05:42:34.499Z,16.88
2023-05-11T05:43:34.503Z,16.88
2023-05-11T05:44:34.504Z,16.88
2023-05-11T05:45:34.493Z,16.88
2023-05-11T05:46:34.562Z,16.88
2023-05-11T05:47:34.455Z,16.88
2023-05-11T05:48:34.451Z,16.88
2023-05-11T05:49:34.440Z,16.88
2023-05-11T05:50:34.404Z,16.88
2023-05-11T05:51:34.402Z,16.88
2023-05-11T05:52:34.382Z,16.88
2023-05-11T05:53:34.386Z,16.88
2023-05-11T05:54:34.386Z,16.88
2023-05-11T05:55:34.356Z,16.88
2023-05-11T05:56:34.339Z,16.88
2023-05-11T05:57:34.329Z,16.88
2023-05-11T05:58:34.321Z,16.88
2023-05-11T05:59:34.336Z,16.88
2023-05-11T06:00:34.306Z,16.88
2023-05-11T06:01:34.305Z,16.88
2023-05-11T06:02:34.345Z,22.50
2023-05-11T06:03:34.532Z,22.50
2023-05-11T06:04:34.354Z,22.50
2023-05-11T06:05:34.237Z,22.50
2023-05-11T06:06:34.228Z,22.50
2023-05-11T06:07:34.217Z,22.50
2023-05-11T06:08:34.214Z,22.50
2023-05-11T06:09:34.219Z,22.50
2023-05-11T06:10:34.213Z,22.50
2023-05-11T06:11:34.176Z,22.50
2023-05-11T06:12:34.163Z,22.50
2023-05-11T06:13:34.165Z,22.50
2023-05-11T06:14:34.144Z,22.50
2023-05-11T06:15:34.131Z,22.50
2023-05-11T06:16:34.192Z,22.50
2023-05-11T06:17:35.014Z,22.50
2023-05-11T06:18:34.139Z,22.50
2023-05-11T06:19:34.097Z,22.50
2023-05-11T06:20:34.073Z,22.50
2023-05-11T06:21:34.081Z,22.50
2023-05-11T06:22:34.078Z,22.50
2023-05-11T06:23:34.039Z,22.50
2023-05-11T06:24:34.054Z,22.50
2023-05-11T06:25:34.018Z,22.50
2023-05-11T06:26:34.011Z,22.50
2023-05-11T06:27:33.995Z,22.50
2023-05-11T06:28:34.024Z,22.50
2023-05-11T06:29:33.976Z,22.50
2023-05-11T06:30:33.967Z,22.50
2023-05-11T06:31:33.997Z,22.50
2023-05-11T06:32:33.975Z,22.50
2023-05-11T06:33:33.982Z,22.50
2023-05-11T06:34:33.926Z,22.50
2023-05-11T06:35:33.915Z,22.50
2023-05-11T06:36:33.917Z,22.50
2023-05-11T06:37:33.889Z,22.50
2023-05-11T06:38:33.914Z,22.50
2023-05-11T06:39:33.895Z,22.50
2023-05-11T06:40:33.873Z,22.50
2023-05-11T06:41:33.853Z,22.50
2023-05-11T06:42:33.844Z,22.50
2023-05-11T06:43:33.826Z,22.50
2023-05-11T06:44:33.848Z,22.50
2023-05-11T06:45:33.911Z,22.50
2023-05-11T06:46:33.834Z,22.50
2023-05-11T06:47:33.860Z,22.50
2023-05-11T06:48:33.779Z,22.50
2023-05-11T06:49:33.783Z,22.50
2023-05-11T06:50:33.762Z,28.12
2023-05-11T06:51:33.778Z,28.12
2023-05-11T06:52:33.760Z,28.12
2023-05-11T06:53:33.720Z,28.12
2023-05-11T06:54:33.719Z,28.12
2023-05-11T06:55:33.703Z,28.12
2023-05-11T06:56:33.722Z,28.12
2023-05-11T06:57:33.704Z,28.12
2023-05-11T06:58:33.675Z,28.12
2023-05-11T06:59:33.660Z,28.12
2023-05-11T07:00:33.656Z,28.12
2023-05-11T07:01:33.711Z,28.12
2023-05-11T07:02:33.702Z,28.12
2023-05-11T07:03:33.621Z,28.12
2023-05-11T07:04:33.662Z,28.12
2023-05-11T07:05:33.614Z,28.12
2023-05-11T07:06:33.591Z,28.12
2023-05-11T07:07:33.591Z,28.12
2023-05-11T07:08:33.559Z,28.12
2023-05-11T07:09:33.554Z,28.12
2023-05-11T07:10:33.539Z,28.12
2023-05-11T07:11:33.525Z,28.12
2023-05-11T07:12:33.545Z,28.12
2023-05-11T07:13:33.497Z,28.12
2023-05-11T07:14:33.490Z,28.12
2023-05-11T07:15:33.481Z,28.12
2023-05-11T07:16:33.498Z,28.12
2023-05-11T07:17:33.473Z,28.12
2023-05-11T07:18:33.526Z,28.12
2023-05-11T07:19:33.442Z,28.12
2023-05-11T07:20:33.430Z,28.12
2023-05-11T07:21:33.456Z,28.12
2023-05-11T07:22:33.405Z,28.12
2023-05-11T07:23:33.421Z,28.12
2023-05-11T07:24:33.383Z,28.12
2023-05-11T07:25:33.378Z,28.12
2023-05-11T07:26:33.373Z,28.12
2023-05-11T07:27:33.347Z,28.12
2023-05-11T07:28:33.380Z,33.75
2023-05-11T07:29:33.348Z,33.75
2023-05-11T07:30:33.320Z,33.75
2023-05-11T07:31:33.328Z,33.75
2023-05-11T07:32:33.348Z,28.12
2023-05-11T07:33:33.308Z,33.75
2023-05-11T07:34:33.296Z,33.75
2023-05-11T07:35:33.264Z,33.75
2023-05-11T07:36:33.258Z,33.75
2023-05-11T07:37:33.258Z,33.75
2023-05-11T07:38:33.225Z,33.75
2023-05-11T07:39:33.239Z,33.75
2023-05-11T07:40:33.207Z,33.75
2023-05-11T07:41:33.186Z,33.75
2023-05-11T07:42:33.225Z,33.75
2023-05-11T07:43:33.178Z,33.75
2023-05-11T07:44:33.189Z,39.38
2023-05-11T07:45:33.150Z,39.38
2023-05-11T07:46:33.178Z,45.00
2023-05-11T07:47:36.021Z,39.38
2023-05-11T07:48:33.134Z,39.38
2023-05-11T07:49:43.031Z,39.38
2023-05-11T07:50:34.100Z,39.38
2023-05-11T07:51:34.017Z,39.38
2023-05-11T07:52:33.079Z,39.38
2023-05-11T07:53:33.090Z,39.38
2023-05-11T07:54:33.058Z,39.38
2023-05-11T07:55:33.069Z,39.38
2023-05-11T07:56:33.034Z,39.38
2023-05-11T07:57:33.020Z,39.38
2023-05-11T07:58:33.043Z,39.38
2023-05-11T07:59:32.996Z,39.38
2023-05-11T08:00:33.012Z,39.38
2023-05-11T08:01:32.987Z,39.38
2023-05-11T08:02:33.059Z,45.00
2023-05-11T08:03:33.043Z,129.38
2023-05-11T08:04:32.948Z,157.50
2023-05-11T08:05:32.978Z,793.12
2023-05-11T08:06:32.925Z,798.75
2023-05-11T08:07:32.913Z,506.25
2023-05-11T08:08:32.931Z,613.12
2023-05-11T08:09:32.911Z,466.88
2023-05-11T08:10:32.904Z,208.12
2023-05-11T08:11:32.877Z,168.75
2023-05-11T08:12:32.869Z,123.75
2023-05-11T08:13:32.879Z,326.25
2023-05-11T08:14:32.872Z,731.25
2023-05-11T08:15:32.836Z,180.00
2023-05-11T08:16:32.883Z,106.88
2023-05-11T08:17:32.823Z,73.12
2023-05-11T08:18:32.873Z,56.25
2023-05-11T08:19:32.785Z,50.62
2023-05-11T08:20:32.800Z,45.00
2023-05-11T08:21:32.772Z,50.62
2023-05-11T08:22:32.771Z,50.62
2023-05-11T08:23:32.758Z,56.25
2023-05-11T08:24:32.741Z,61.88
2023-05-11T08:25:32.768Z,56.25
2023-05-11T08:26:32.713Z,56.25
2023-05-11T08:27:32.703Z,61.88
2023-05-11T08:28:32.690Z,84.38
2023-05-11T08:29:32.679Z,511.88
2023-05-11T08:30:32.704Z,551.25
2023-05-11T08:31:32.699Z,2508.75
2023-05-11T08:32:40.693Z,1113.75
2023-05-11T08:33:38.329Z,135.00
2023-05-11T08:34:33.745Z,50.62
2023-05-11T08:35:32.646Z,61.88
2023-05-11T08:36:32.604Z,78.75
2023-05-11T08:37:32.587Z,112.50
2023-05-11T08:38:32.601Z,95.62
2023-05-11T08:39:46.005Z,337.50
2023-05-11T08:40:33.593Z,410.62
2023-05-11T08:41:32.574Z,129.38
2023-05-11T08:42:32.542Z,56.25
2023-05-11T08:43:32.524Z,135.00
2023-05-11T08:44:32.524Z,84.38
2023-05-11T08:45:32.576Z,45.00
2023-05-11T08:46:32.532Z,39.38
2023-05-11T08:47:32.514Z,39.38
2023-05-11T08:48:32.489Z,39.38
2023-05-11T08:49:32.470Z,45.00
2023-05-11T08:50:32.488Z,50.62
2023-05-11T08:51:32.445Z,45.00
2023-05-11T08:52:32.435Z,56.25
2023-05-11T08:53:32.421Z,258.75
2023-05-11T08:54:32.423Z,230.62
2023-05-11T08:55:32.433Z,292.50
2023-05-11T08:56:32.393Z,123.75
2023-05-11T08:57:32.395Z,50.62
2023-05-11T08:58:32.373Z,56.25
2023-05-11T08:59:32.365Z,50.62
2023-05-11T09:00:32.375Z,56.25
2023-05-11T09:01:32.469Z,320.62
2023-05-11T09:02:32.392Z,61.88
2023-05-11T09:03:32.319Z,56.25
2023-05-11T09:04:32.311Z,241.88
2023-05-11T09:05:32.367Z,675.00
2023-05-11T09:06:32.290Z,45.00
2023-05-11T09:07:32.271Z,45.00
2023-05-11T09:08:32.265Z,45.00
2023-05-11T09:09:32.260Z,45.00
2023-05-11T09:10:32.284Z,50.62
2023-05-11T09:11:32.228Z,45.00
2023-05-11T09:12:32.215Z,50.62
2023-05-11T09:13:32.248Z,45.00
2023-05-11T09:14:32.191Z,50.62
2023-05-11T09:15:37.261Z,45.00
2023-05-11T09:16:37.224Z,50.62
2023-05-11T09:17:32.222Z,73.12
2023-05-11T09:18:32.195Z,157.50
2023-05-11T09:19:32.161Z,95.62
2023-05-11T09:20:32.152Z,50.62
2023-05-11T09:21:32.139Z,270.00
2023-05-11T09:22:33.822Z,129.38
2023-05-11T09:23:32.095Z,67.50
2023-05-11T09:24:32.086Z,230.62
2023-05-11T09:25:32.103Z,990.00
2023-05-11T09:26:32.092Z,61.88
2023-05-11T09:27:32.051Z,1125.00
2023-05-11T09:28:36.014Z,573.75
2023-05-11T09:29:32.060Z,163.12
2023-05-11T09:30:32.033Z,320.62
2023-05-11T09:31:32.121Z,180.00
2023-05-11T09:32:32.050Z,185.62
2023-05-11T09:33:31.994Z,500.62
2023-05-11T09:34:31.994Z,180.00
2023-05-11T09:35:31.993Z,146.25
2023-05-11T09:36:31.968Z,382.50
2023-05-11T09:37:31.983Z,73.12
2023-05-11T09:38:31.942Z,106.88
2023-05-11T09:41:34.700Z,123.75
2023-05-11T09:42:31.923Z,73.12
2023-05-11T09:43:31.909Z,45.00
2023-05-11T09:44:31.877Z,416.25
2023-05-11T09:45:31.907Z,101.25
2023-05-11T09:46:31.895Z,56.25
2023-05-11T09:47:31.907Z,230.62
2023-05-11T09:48:32.035Z,270.00
2023-05-11T09:49:31.818Z,253.12
2023-05-11T09:50:31.839Z,624.38
2023-05-11T09:51:31.809Z,343.12
2023-05-11T09:52:31.802Z,286.88
2023-05-11T09:53:31.795Z,731.25
2023-05-11T09:54:31.797Z,1063.12
2023-05-11T09:55:31.770Z,1743.75
2023-05-11T09:56:31.787Z,765.00
2023-05-11T09:57:31.779Z,686.25
2023-05-11T09:58:31.741Z,1389.38
2023-05-11T09:59:31.731Z,337.50
2023-05-11T10:00:31.717Z,781.88
2023-05-11T10:01:31.885Z,888.75
2023-05-11T10:02:31.884Z,759.38
2023-05-11T10:03:31.775Z,534.38
2023-05-11T10:04:31.867Z,371.25
2023-05-11T10:05:31.664Z,1063.12
2023-05-11T10:06:31.652Z,33.75
2023-05-11T10:07:31.631Z,33.75
2023-05-11T10:08:31.668Z,45.00
2023-05-11T10:09:31.610Z,56.25
2023-05-11T10:10:31.605Z,174.38
2023-05-11T10:11:31.599Z,703.12
2023-05-11T10:12:31.587Z,213.75
2023-05-11T10:13:31.578Z,157.50
2023-05-11T10:14:31.586Z,140.62
2023-05-11T10:15:31.570Z,686.25
2023-05-11T10:16:31.659Z,905.62
2023-05-11T10:17:31.610Z,838.12
2023-05-11T10:18:31.518Z,410.62
2023-05-11T10:19:31.530Z,185.62
2023-05-11T10:20:31.497Z,225.00
2023-05-11T10:21:31.529Z,208.12
2023-05-11T10:22:31.497Z,371.25
2023-05-11T10:23:31.469Z,3060.00
2023-05-11T10:24:31.488Z,3144.38
2023-05-11T10:25:31.441Z,3341.25
2023-05-11T10:26:31.430Z,95.62
2023-05-11T10:27:31.419Z,90.00
2023-05-11T10:28:31.420Z,50.62
2023-05-11T10:29:31.420Z,73.12
2023-05-11T10:30:31.398Z,67.50
2023-05-11T10:31:31.421Z,61.88
2023-05-11T10:32:31.461Z,90.00
2023-05-11T10:33:31.479Z,151.88
2023-05-11T10:34:31.385Z,168.75
2023-05-11T10:35:31.332Z,112.50
2023-05-11T10:36:31.319Z,174.38
2023-05-11T10:37:31.338Z,247.50
2023-05-11T10:38:31.301Z,258.75
2023-05-11T10:39:31.310Z,196.88
2023-05-11T10:40:31.279Z,590.62
2023-05-11T10:41:31.268Z,1198.12
2023-05-11T10:42:31.254Z,230.62
2023-05-11T10:43:31.240Z,348.75
2023-05-11T10:44:31.264Z,517.50
2023-05-11T10:45:31.253Z,146.25
2023-05-11T10:46:31.294Z,135.00
2023-05-11T10:47:31.230Z,101.25
2023-05-11T10:48:31.186Z,157.50
2023-05-11T10:49:31.238Z,118.12
2023-05-11T10:50:31.168Z,90.00
2023-05-11T10:51:31.162Z,67.50
2023-05-11T10:52:31.148Z,39.38
2023-05-11T10:53:31.167Z,33.75
2023-05-11T10:54:31.121Z,39.38
2023-05-11T10:55:31.115Z,45.00
2023-05-11T10:56:31.112Z,45.00
2023-05-11T10:57:33.498Z,56.25
2023-05-11T10:58:31.095Z,73.12
2023-05-11T10:59:31.073Z,78.75
2023-05-11T11:00:31.180Z,320.62
2023-05-11T11:01:31.086Z,118.12
2023-05-11T11:02:31.058Z,106.88
2023-05-11T11:03:31.054Z,174.38
2023-05-11T11:04:31.024Z,106.88
2023-05-11T11:05:31.067Z,61.88
2023-05-11T11:06:31.008Z,50.62
2023-05-11T11:07:31.013Z,50.62
2023-05-11T11:08:31.003Z,50.62
2023-05-11T11:09:30.965Z,50.62
2023-05-11T11:10:30.980Z,56.25
2023-05-11T11:11:30.949Z,61.88
2023-05-11T11:12:30.932Z,73.12
2023-05-11T11:13:30.940Z,78.75
2023-05-11T11:14:30.902Z,67.50
2023-05-11T11:15:30.922Z,78.75
2023-05-11T11:16:31.000Z,140.62
2023-05-11T11:17:30.912Z,146.25
2023-05-11T11:18:30.943Z,230.62
2023-05-11T11:19:30.873Z,731.25
2023-05-11T11:20:30.867Z,731.25
2023-05-11T11:21:30.862Z,461.25
2023-05-11T11:22:30.830Z,309.38
2023-05-11T11:23:30.821Z,180.00
2023-05-11T11:24:30.852Z,118.12
2023-05-11T11:25:30.828Z,101.25
2023-05-11T11:26:30.885Z,135.00
2023-05-11T11:27:30.792Z,140.62
2023-05-11T11:28:30.882Z,112.50
2023-05-11T11:29:30.838Z,140.62
2023-05-11T11:30:30.968Z,180.00
2023-05-11T11:31:30.764Z,95.62
2023-05-11T11:32:30.931Z,135.00
2023-05-11T11:33:30.712Z,180.00
2023-05-11T11:34:30.707Z,112.50
2023-05-11T11:35:30.698Z,84.38
2023-05-11T11:36:30.697Z,123.75
2023-05-11T11:37:30.706Z,90.00
2023-05-11T11:38:30.665Z,112.50
2023-05-11T11:39:30.658Z,67.50
2023-05-11T11:40:36.544Z,90.00
2023-05-11T11:41:31.649Z,45.00
2023-05-11T11:42:30.630Z,22.50
2023-05-11T11:43:30.601Z,22.50
2023-05-11T11:44:30.588Z,22.50
2023-05-11T11:45:30.589Z,33.75
2023-05-11T11:46:30.620Z,45.00
2023-05-11T11:47:30.566Z,50.62
2023-05-11T11:48:30.543Z,56.25
2023-05-11T11:49:30.545Z,56.25
2023-05-11T11:50:30.526Z,50.62
2023-05-11T11:51:30.558Z,106.88
2023-05-11T11:52:30.541Z,90.00
2023-05-11T11:53:30.664Z,101.25
2023-05-11T11:54:30.483Z,106.88
2023-05-11T11:55:30.486Z,112.50
2023-05-11T11:56:30.461Z,101.25
2023-05-11T11:57:30.471Z,106.88
2023-05-11T11:58:30.449Z,95.62
2023-05-11T11:59:30.429Z,90.00
2023-05-11T12:00:30.421Z,90.00
2023-05-11T12:01:30.425Z,45.00
2023-05-11T12:02:30.539Z,39.38
2023-05-11T12:03:30.591Z,45.00
2023-05-11T12:04:30.481Z,45.00
2023-05-11T12:05:30.373Z,50.62
2023-05-11T12:06:30.351Z,50.62
2023-05-11T12:07:30.368Z,56.25
2023-05-11T12:08:30.335Z,56.25
2023-05-11T12:09:30.378Z,56.25
2023-05-11T12:10:30.333Z,50.62
2023-05-11T12:11:30.339Z,50.62
2023-05-11T12:12:30.310Z,45.00
2023-05-11T12:13:30.286Z,45.00
2023-05-11T12:14:30.273Z,45.00
2023-05-11T12:15:30.276Z,50.62
2023-05-11T12:16:30.400Z,50.62
2023-05-11T12:17:30.311Z,50.62
2023-05-11T12:18:30.235Z,50.62
2023-05-11T12:19:30.217Z,56.25
2023-05-11T12:20:30.196Z,61.88
2023-05-11T12:21:30.266Z,61.88
2023-05-11T12:22:30.203Z,67.50
2023-05-11T12:23:30.191Z,67.50
2023-05-11T12:24:30.167Z,67.50
2023-05-11T12:25:30.179Z,67.50
2023-05-11T12:26:30.196Z,73.12
2023-05-11T12:27:30.151Z,73.12
2023-05-11T12:28:30.121Z,73.12
2023-05-11T12:29:30.116Z,73.12
2023-05-11T12:30:30.104Z,73.12
2023-05-11T12:31:30.141Z,73.12
2023-05-11T12:32:30.184Z,73.12
2023-05-11T12:33:30.068Z,78.75
2023-05-11T12:34:30.052Z,78.75
2023-05-11T12:35:30.102Z,78.75
2023-05-11T12:36:30.040Z,78.75
2023-05-11T12:37:30.065Z,73.12
2023-05-11T12:38:30.009Z,73.12
2023-05-11T12:39:30.005Z,73.12
2023-05-11T12:40:29.990Z,73.12
2023-05-11T12:41:30.048Z,67.50
2023-05-11T12:42:29.983Z,73.12
2023-05-11T12:43:29.968Z,73.12
2023-05-11T12:44:29.963Z,78.75
2023-05-11T12:45:29.944Z,84.38
2023-05-11T12:46:29.973Z,84.38
2023-05-11T12:47:30.031Z,78.75
2023-05-11T12:48:29.911Z,67.50
2023-05-11T12:49:29.901Z,67.50
2023-05-11T12:50:29.896Z,67.50
2023-05-11T12:51:29.911Z,73.12
2023-05-11T12:52:29.872Z,61.88
2023-05-11T12:53:29.864Z,73.12
2023-05-11T12:54:29.846Z,67.50
2023-05-11T12:55:29.844Z,61.88
2023-05-11T12:56:29.854Z,61.88
2023-05-11T12:57:29.840Z,56.25
2023-05-11T12:58:29.826Z,50.62
2023-05-11T12:59:29.802Z,50.62